Time;durP1;ratioP1;P1;durP2;ratioP2;P2;SDS_P1;SDS_P2;PMS_P1;PMS_P2;Temp;Humidity;BMP_temperature;BMP_pressure;BME280_temperature;BME280_humidity;BME280_pressure;Samples;Min_cycle;Max_cycle;Signal;HPM_P1;HPM_P2
2023/06/26 00:02:16;;;;;;;1.30;1.10;;;;;;;;;;7402777;19;20154;-89
2023/06/26 00:04:43;;;;;;;0.73;0.73;;;;;;;;;;7401902;19;20153;-89
2023/06/26 00:07:10;;;;;;;1.65;1.55;;;;;;;;;;7402421;19;20853;-89
2023/06/26 00:09:37;;;;;;;1.02;0.90;;;;;;;;;;7399133;19;20141;-90
2023/06/26 00:12:04;;;;;;;1.90;1.17;;;;;;;;;;7401208;19;20597;-89
2023/06/26 00:14:31;;;;;;;3.38;1.77;;;;;;;;;;7399748;19;20159;-89
2023/06/26 00:16:57;;;;;;;0.50;0.50;;;;;;;;;;7401831;19;20212;-89
2023/06/26 00:19:24;;;;;;;1.20;1.10;;;;;;;;;;7400803;19;20125;-89
2023/06/26 00:21:51;;;;;;;1.33;1.23;;;;;;;;;;7400524;19;20594;-88
2023/06/26 00:24:18;;;;;;;1.92;1.20;;;;;;;;;;7397496;19;20170;-89
2023/06/26 00:26:48;;;;;;;1.25;1.15;;;;;;;;;;7401943;19;20132;-89
2023/06/26 00:29:15;;;;;;;1.35;1.25;;;;;;;;;;7398009;19;20133;-88
2023/06/26 00:31:42;;;;;;;0.70;0.70;;;;;;;;;;7399040;19;20131;-89
2023/06/26 00:34:15;;;;;;;1.30;1.27;;;;;;;;;;7400070;19;20149;-88
2023/06/26 00:36:43;;;;;;;1.00;1.00;;;;;;;;;;7401775;19;20133;-89
2023/06/26 00:39:10;;;;;;;1.63;1.52;;;;;;;;;;7401802;19;20139;-89
2023/06/26 00:41:37;;;;;;;0.90;0.90;;;;;;;;;;7401513;19;20578;-89
2023/06/26 00:44:04;;;;;;;3.38;1.58;;;;;;;;;;7400823;19;20224;-89
2023/06/26 00:46:32;;;;;;;1.63;1.52;;;;;;;;;;7401225;19;20136;-89
2023/06/26 00:48:59;;;;;;;0.77;0.77;;;;;;;;;;7399444;19;20128;-89
2023/06/26 00:51:27;;;;;;;1.05;1.05;;;;;;;;;;7398108;19;20590;-90
2023/06/26 00:53:54;;;;;;;1.23;1.17;;;;;;;;;;7399322;19;20179;-89
2023/06/26 00:56:21;;;;;;;0.85;0.85;;;;;;;;;;7398896;19;20158;-89
2023/06/26 00:58:48;;;;;;;2.50;1.60;;;;;;;;;;7399459;19;20117;-89
2023/06/26 01:01:17;;;;;;;0.70;0.70;;;;;;;;;;7400800;19;20210;-90
2023/06/26 01:03:45;;;;;;;1.45;1.35;;;;;;;;;;7398585;19;20173;-89
2023/06/26 01:06:13;;;;;;;1.80;1.70;;;;;;;;;;7398465;19;20201;-89
2023/06/26 01:08:41;;;;;;;1.67;1.58;;;;;;;;;;7397314;19;20137;-89
2023/06/26 01:11:07;;;;;;;0.77;0.77;;;;;;;;;;7395470;19;20137;-88
2023/06/26 01:13:35;;;;;;;0.70;0.70;;;;;;;;;;7399313;19;20141;-89
2023/06/26 01:16:03;;;;;;;1.10;1.10;;;;;;;;;;7400713;19;20137;-89
2023/06/26 01:18:31;;;;;;;1.45;1.35;;;;;;;;;;7399204;19;20137;-89
2023/06/26 01:21:01;;;;;;;1.25;1.25;;;;;;;;;;7399917;19;20629;-88
2023/06/26 01:23:39;;;;;;;1.10;1.10;;;;;;;;;;7397519;19;20133;-89
2023/06/26 01:26:22;;;;;;;0.93;0.93;;;;;;;;;;7399637;19;20200;-89
2023/06/26 01:28:52;;;;;;;1.05;0.85;;;;;;;;;;7398145;19;20157;-89
2023/06/26 01:31:19;;;;;;;1.38;1.27;;;;;;;;;;7399696;19;20603;-88
2023/06/26 01:33:46;;;;;;;1.02;0.95;;;;;;;;;;7398547;19;20220;-89
2023/06/26 01:36:13;;;;;;;1.10;1.10;;;;;;;;;;7404915;19;20139;-88
2023/06/26 01:38:40;;;;;;;1.42;1.13;;;;;;;;;;7405558;19;20129;-89
2023/06/26 01:41:09;;;;;;;0.88;0.85;;;;;;;;;;7406591;19;20145;-88
2023/06/26 01:43:41;;;;;;;1.35;1.27;;;;;;;;;;7403983;19;20144;-89
2023/06/26 01:46:27;;;;;;;1.25;1.25;;;;;;;;;;7404593;19;20592;-88
2023/06/26 01:49:12;;;;;;;1.40;1.30;;;;;;;;;;7398967;19;20132;-89
2023/06/26 01:51:45;;;;;;;1.20;1.10;;;;;;;;;;7398373;19;20224;-89
2023/06/26 01:54:18;;;;;;;1.83;1.55;;;;;;;;;;7398362;19;20476;-89
2023/06/26 01:56:45;;;;;;;0.95;0.93;;;;;;;;;;7396321;19;20132;-89
2023/06/26 01:59:15;;;;;;;0.73;0.73;;;;;;;;;;7399206;19;20133;-90
2023/06/26 02:01:46;;;;;;;2.00;1.75;;;;;;;;;;7398879;19;20140;-89
2023/06/26 02:04:13;;;;;;;1.38;1.27;;;;;;;;;;7398522;19;20149;-89
2023/06/26 02:06:40;;;;;;;1.27;1.27;;;;;;;;;;7401200;19;20147;-89
2023/06/26 02:09:07;;;;;;;0.82;0.82;;;;;;;;;;7399533;19;20127;-89
2023/06/26 02:11:34;;;;;;;1.38;1.33;;;;;;;;;;7399296;19;20128;-89
2023/06/26 02:14:01;;;;;;;1.67;1.58;;;;;;;;;;7400270;19;20181;-88
2023/06/26 02:16:27;;;;;;;0.80;0.80;;;;;;;;;;7400901;19;20137;-89
2023/06/26 02:18:54;;;;;;;0.90;0.90;;;;;;;;;;7400884;19;20133;-89
2023/06/26 02:21:21;;;;;;;5.05;1.42;;;;;;;;;;7401286;19;20147;-88
2023/06/26 02:23:48;;;;;;;1.42;1.33;;;;;;;;;;7400747;19;20153;-88
2023/06/26 02:26:15;;;;;;;1.40;1.13;;;;;;;;;;7402096;19;20140;-89
2023/06/26 02:28:44;;;;;;;1.13;1.02;;;;;;;;;;7401507;19;20145;-89
2023/06/26 02:31:11;;;;;;;1.40;1.30;;;;;;;;;;7398121;19;20147;-88
2023/06/26 02:33:39;;;;;;;1.05;0.95;;;;;;;;;;7400987;19;20145;-89
2023/06/26 02:36:05;;;;;;;1.00;1.00;;;;;;;;;;7401068;19;20352;-88
2023/06/26 02:38:32;;;;;;;1.15;1.15;;;;;;;;;;7400668;19;20140;-89
2023/06/26 02:40:59;;;;;;;0.52;0.52;;;;;;;;;;7399538;19;20125;-88
2023/06/26 02:43:25;;;;;;;0.98;0.98;;;;;;;;;;7397705;19;20913;-88
2023/06/26 02:45:52;;;;;;;1.58;1.48;;;;;;;;;;7397638;19;20147;-88
2023/06/26 02:48:19;;;;;;;1.67;1.58;;;;;;;;;;7399474;19;20125;-88
2023/06/26 02:50:46;;;;;;;3.42;1.27;;;;;;;;;;7396011;19;20144;-89
2023/06/26 02:53:13;;;;;;;0.98;0.98;;;;;;;;;;7395265;19;20547;-88
2023/06/26 02:55:39;;;;;;;1.45;1.35;;;;;;;;;;7399728;19;20161;-88
2023/06/26 02:58:06;;;;;;;1.00;1.00;;;;;;;;;;7400732;19;20137;-88
2023/06/26 03:00:33;;;;;;;1.50;1.40;;;;;;;;;;7400162;19;20705;-89
2023/06/26 03:02:59;;;;;;;0.88;0.88;;;;;;;;;;7399387;19;20141;-88
2023/06/26 03:05:26;;;;;;;0.90;0.90;;;;;;;;;;7399667;19;20181;-88
2023/06/26 03:07:53;;;;;;;1.17;1.15;;;;;;;;;;7400021;19;20148;-89
2023/06/26 03:10:19;;;;;;;1.10;0.60;;;;;;;;;;7395505;19;20137;-88
2023/06/26 03:12:46;;;;;;;1.60;1.50;;;;;;;;;;7397602;19;20498;-88
2023/06/26 03:15:13;;;;;;;1.30;1.30;;;;;;;;;;7397255;19;20503;-88
2023/06/26 03:17:40;;;;;;;0.90;0.90;;;;;;;;;;7398368;19;20140;-89
2023/06/26 03:20:07;;;;;;;0.77;0.77;;;;;;;;;;7395685;19;20141;-86
2023/06/26 03:22:34;;;;;;;2.10;1.10;;;;;;;;;;7397182;19;20140;-88
2023/06/26 03:25:02;;;;;;;0.82;0.82;;;;;;;;;;7399880;19;20179;-89
2023/06/26 03:27:29;;;;;;;1.00;0.95;;;;;;;;;;7401865;19;20535;-89
2023/06/26 03:29:55;;;;;;;1.25;1.17;;;;;;;;;;7399764;19;20141;-88
2023/06/26 03:32:22;;;;;;;0.70;0.70;;;;;;;;;;7400906;19;20144;-89
2023/06/26 03:34:48;;;;;;;1.77;1.67;;;;;;;;;;7400455;19;20164;-89
2023/06/26 03:37:15;;;;;;;1.30;1.30;;;;;;;;;;7400735;19;20125;-89
2023/06/26 03:39:42;;;;;;;1.02;0.93;;;;;;;;;;7400981;19;20141;-88
2023/06/26 03:42:08;;;;;;;0.85;0.85;;;;;;;;;;7401273;19;20145;-88
2023/06/26 03:44:35;;;;;;;1.35;1.25;;;;;;;;;;7401446;19;20155;-88
2023/06/26 03:47:02;;;;;;;1.05;1.05;;;;;;;;;;7401338;19;20143;-88
2023/06/26 03:49:29;;;;;;;2.33;1.38;;;;;;;;;;7399673;19;20142;-88
2023/06/26 03:51:55;;;;;;;0.85;0.85;;;;;;;;;;7399939;19;20867;-88
2023/06/26 03:54:22;;;;;;;1.15;1.13;;;;;;;;;;7400260;19;20153;-88
2023/06/26 03:56:52;;;;;;;1.55;1.33;;;;;;;;;;7399922;19;20133;-88
2023/06/26 03:59:18;;;;;;;1.17;1.17;;;;;;;;;;7400393;19;20148;-88
2023/06/26 04:01:45;;;;;;;1.38;1.27;;;;;;;;;;7399433;19;20143;-88
2023/06/26 04:04:11;;;;;;;0.80;0.80;;;;;;;;;;7401084;19;20169;-87
2023/06/26 04:06:39;;;;;;;1.63;1.55;;;;;;;;;;7400506;19;20146;-88
2023/06/26 04:09:06;;;;;;;0.85;0.85;;;;;;;;;;7400923;19;20144;-88
2023/06/26 04:11:32;;;;;;;1.25;1.23;;;;;;;;;;7399490;19;20133;-88
2023/06/26 04:13:59;;;;;;;3.63;1.30;;;;;;;;;;7399936;19;20480;-89
2023/06/26 04:16:25;;;;;;;1.38;0.98;;;;;;;;;;7399872;19;20133;-88
2023/06/26 04:18:53;;;;;;;1.35;1.25;;;;;;;;;;7399957;19;20141;-89
2023/06/26 04:21:19;;;;;;;1.20;1.10;;;;;;;;;;7398455;19;20137;-87
2023/06/26 04:23:49;;;;;;;1.10;1.10;;;;;;;;;;7399628;19;20212;-88
2023/06/26 04:26:15;;;;;;;1.35;1.25;;;;;;;;;;7400429;19;20133;-88
2023/06/26 04:28:42;;;;;;;2.15;1.52;;;;;;;;;;7398642;19;20137;-88
2023/06/26 04:31:09;;;;;;;1.00;1.00;;;;;;;;;;7399509;19;20141;-89
2023/06/26 04:33:36;;;;;;;1.33;1.23;;;;;;;;;;7402251;19;20140;-88
2023/06/26 04:36:07;;;;;;;0.60;0.60;;;;;;;;;;7394940;19;20822;-89
2023/06/26 04:38:33;;;;;;;0.93;0.93;;;;;;;;;;7393856;19;20133;-88
2023/06/26 04:41:01;;;;;;;1.92;1.52;;;;;;;;;;7394527;19;20144;-89
2023/06/26 04:43:27;;;;;;;1.27;1.23;;;;;;;;;;7393585;19;20146;-87
2023/06/26 04:45:54;;;;;;;1.35;1.25;;;;;;;;;;7394512;19;20149;-88
2023/06/26 04:48:21;;;;;;;1.02;1.00;;;;;;;;;;7394155;19;20141;-89
2023/06/26 04:50:53;;;;;;;0.80;0.80;;;;;;;;;;7394220;19;20141;-89
2023/06/26 04:53:22;;;;;;;0.98;0.85;;;;;;;;;;7391175;19;20133;-89
2023/06/26 04:55:50;;;;;;;2.08;1.45;;;;;;;;;;7389691;19;20527;-88
2023/06/26 04:58:18;;;;;;;1.30;1.23;;;;;;;;;;7391687;19;20133;-88
2023/06/26 05:00:44;;;;;;;1.80;1.60;;;;;;;;;;7390960;19;20136;-89
2023/06/26 05:03:13;;;;;;;1.85;1.73;;;;;;;;;;7391806;19;20594;-90
2023/06/26 05:05:40;;;;;;;1.08;1.08;;;;;;;;;;7390793;19;20696;-89
2023/06/26 05:08:24;;;;;;;1.20;1.08;;;;;;;;;;7392541;19;20494;-89
2023/06/26 05:10:50;;;;;;;2.20;1.48;;;;;;;;;;7397079;19;20522;-89
2023/06/26 05:13:19;;;;;;;1.95;1.48;;;;;;;;;;7398440;19;20619;-89
2023/06/26 05:15:46;;;;;;;1.45;1.35;;;;;;;;;;7398551;19;20147;-89
2023/06/26 05:18:13;;;;;;;1.75;1.48;;;;;;;;;;7395905;19;20141;-90
2023/06/26 05:20:40;;;;;;;1.33;1.33;;;;;;;;;;7394795;19;20653;-89
2023/06/26 05:23:07;;;;;;;1.83;1.73;;;;;;;;;;7398223;19;20147;-89
2023/06/26 05:25:34;;;;;;;1.55;1.45;;;;;;;;;;7397128;19;20149;-90
2023/06/26 05:28:01;;;;;;;1.27;1.27;;;;;;;;;;7395902;19;20141;-88
2023/06/26 05:30:28;;;;;;;1.10;1.10;;;;;;;;;;7394430;19;20137;-88
2023/06/26 05:33:21;;;;;;;3.10;1.10;;;;;;;;;;7399448;19;20211;-88
2023/06/26 05:36:13;;;;;;;1.23;1.15;;;;;;;;;;7396092;19;20152;-88
2023/06/26 05:42:23;;;;;;;1.48;1.38;;;;;;;;;;7396334;19;20105;-88
2023/06/26 05:44:50;;;;;;;0.85;0.85;;;;;;;;;;7397825;19;20187;-88
2023/06/26 05:47:16;;;;;;;0.52;0.52;;;;;;;;;;7397857;19;20146;-88
2023/06/26 05:49:43;;;;;;;1.48;1.38;;;;;;;;;;7398096;19;20621;-88
2023/06/26 05:52:11;;;;;;;1.50;1.40;;;;;;;;;;7398677;19;20136;-88
2023/06/26 05:54:39;;;;;;;0.90;0.90;;;;;;;;;;7397248;19;20151;-88
2023/06/26 05:57:06;;;;;;;1.13;1.13;;;;;;;;;;7398633;19;20178;-88
2023/06/26 05:59:33;;;;;;;2.58;2.10;;;;;;;;;;7396573;19;20498;-88
2023/06/26 06:01:59;;;;;;;0.98;0.98;;;;;;;;;;7395219;19;20144;-89
2023/06/26 06:04:26;;;;;;;1.23;1.13;;;;;;;;;;7394033;19;20252;-89
2023/06/26 06:06:53;;;;;;;1.40;1.30;;;;;;;;;;7398026;19;20140;-87
2023/06/26 06:09:19;;;;;;;1.77;1.67;;;;;;;;;;7397327;19;20133;-88
2023/06/26 06:11:46;;;;;;;1.15;1.05;;;;;;;;;;7394645;19;20133;-89
2023/06/26 06:14:13;;;;;;;1.88;1.63;;;;;;;;;;7397673;19;20160;-89
2023/06/26 06:16:39;;;;;;;1.17;1.08;;;;;;;;;;7396739;19;20129;-89
2023/06/26 06:19:07;;;;;;;1.38;1.27;;;;;;;;;;7396587;19;20133;-88
2023/06/26 06:21:34;;;;;;;3.53;1.80;;;;;;;;;;7396843;19;20137;-89
2023/06/26 06:24:01;;;;;;;1.27;1.17;;;;;;;;;;7398429;19;20167;-88
2023/06/26 06:26:27;;;;;;;2.15;1.95;;;;;;;;;;7396872;19;20193;-88
2023/06/26 06:28:54;;;;;;;1.23;1.23;;;;;;;;;;7395606;19;20129;-88
2023/06/26 06:31:21;;;;;;;1.15;1.10;;;;;;;;;;7394429;19;20132;-88
2023/06/26 06:33:48;;;;;;;1.42;1.33;;;;;;;;;;7396994;19;20153;-86
2023/06/26 06:36:14;;;;;;;1.23;1.20;;;;;;;;;;7396809;19;20137;-88
2023/06/26 06:38:44;;;;;;;1.25;1.17;;;;;;;;;;7405643;19;20141;-87
2023/06/26 06:41:12;;;;;;;0.63;0.63;;;;;;;;;;7401966;19;20141;-88
2023/06/26 06:43:39;;;;;;;1.35;1.17;;;;;;;;;;7399887;19;20184;-89
2023/06/26 06:46:05;;;;;;;0.90;0.90;;;;;;;;;;7399630;19;20161;-88
2023/06/26 06:48:32;;;;;;;1.90;1.80;;;;;;;;;;7397077;19;20235;-88
2023/06/26 06:50:59;;;;;;;1.38;1.02;;;;;;;;;;7394997;19;20497;-85
2023/06/26 06:53:25;;;;;;;2.15;1.05;;;;;;;;;;7395512;19;20463;-89
2023/06/26 06:55:52;;;;;;;0.60;0.60;;;;;;;;;;7394104;19;20137;-88
2023/06/26 06:58:19;;;;;;;4.75;1.70;;;;;;;;;;7396927;19;20144;-88
2023/06/26 07:00:45;;;;;;;1.42;1.40;;;;;;;;;;7396501;19;20133;-86
2023/06/26 07:03:12;;;;;;;1.73;1.63;;;;;;;;;;7399281;19;20141;-87
2023/06/26 07:05:41;;;;;;;1.17;1.13;;;;;;;;;;7393709;19;20184;-87
2023/06/26 07:08:08;;;;;;;1.52;1.42;;;;;;;;;;7395307;19;20141;-88
2023/06/26 07:10:35;;;;;;;1.38;1.27;;;;;;;;;;7394915;19;20225;-88
2023/06/26 07:13:02;;;;;;;1.27;1.17;;;;;;;;;;7397034;19;20144;-89
2023/06/26 07:15:29;;;;;;;1.65;1.55;;;;;;;;;;7392895;19;20155;-86
2023/06/26 07:17:56;;;;;;;0.80;0.80;;;;;;;;;;7397487;19;20543;-88
2023/06/26 07:20:22;;;;;;;1.00;1.00;;;;;;;;;;7396277;19;20145;-88
2023/06/26 07:22:50;;;;;;;2.00;1.08;;;;;;;;;;7397291;19;20152;-89
2023/06/26 07:25:16;;;;;;;1.10;1.10;;;;;;;;;;7397900;19;20173;-87
2023/06/26 07:27:44;;;;;;;1.75;1.05;;;;;;;;;;7396956;19;20141;-87
2023/06/26 07:30:11;;;;;;;3.03;1.58;;;;;;;;;;7398497;19;20129;-88
2023/06/26 07:32:39;;;;;;;2.42;1.90;;;;;;;;;;7422536;19;20126;-88
2023/06/26 07:35:06;;;;;;;2.92;2.05;;;;;;;;;;7426205;19;20143;-87
2023/06/26 07:37:33;;;;;;;1.00;1.00;;;;;;;;;;7427774;19;20132;-89
2023/06/26 07:40:00;;;;;;;1.75;1.65;;;;;;;;;;7426273;19;20151;-87
2023/06/26 07:42:27;;;;;;;1.45;1.35;;;;;;;;;;7426237;19;20149;-88
2023/06/26 07:44:53;;;;;;;1.77;1.58;;;;;;;;;;7422904;19;20153;-89
2023/06/26 07:47:20;;;;;;;1.17;1.17;;;;;;;;;;7426013;19;20139;-89
2023/06/26 07:49:46;;;;;;;1.70;1.60;;;;;;;;;;7423511;19;20117;-89
2023/06/26 07:52:15;;;;;;;1.65;1.55;;;;;;;;;;7413242;19;20129;-88
2023/06/26 07:54:41;;;;;;;1.67;1.58;;;;;;;;;;7403605;19;20168;-87
2023/06/26 07:57:08;;;;;;;2.10;1.20;;;;;;;;;;7397727;19;20121;-88
2023/06/26 07:59:35;;;;;;;1.00;0.90;;;;;;;;;;7395706;19;20145;-88
2023/06/26 08:02:02;;;;;;;1.45;1.38;;;;;;;;;;7397607;19;20141;-88
2023/06/26 08:04:31;;;;;;;1.25;1.25;;;;;;;;;;7396039;19;20145;-89
2023/06/26 08:06:59;;;;;;;1.77;1.67;;;;;;;;;;7395624;19;20136;-89
2023/06/26 08:09:29;;;;;;;1.58;1.48;;;;;;;;;;7395253;19;20513;-88
2023/06/26 08:11:56;;;;;;;1.25;1.15;;;;;;;;;;7393937;19;20143;-89
2023/06/26 08:14:23;;;;;;;1.58;1.35;;;;;;;;;;7395081;19;20149;-88
2023/06/26 08:16:50;;;;;;;1.75;1.65;;;;;;;;;;7393665;19;20213;-88
2023/06/26 08:19:17;;;;;;;1.52;1.25;;;;;;;;;;7395608;19;20148;-88
2023/06/26 08:21:45;;;;;;;1.23;1.13;;;;;;;;;;7397274;19;20141;-88
2023/06/26 08:24:18;;;;;;;0.98;0.98;;;;;;;;;;7395462;19;20159;-89
2023/06/26 08:26:46;;;;;;;0.85;0.85;;;;;;;;;;7394749;19;20150;-87
2023/06/26 08:29:13;;;;;;;1.38;1.38;;;;;;;;;;7396543;19;20160;-87
2023/06/26 08:31:40;;;;;;;2.33;0.88;;;;;;;;;;7391341;19;20216;-88
2023/06/26 08:34:07;;;;;;;4.07;1.48;;;;;;;;;;7394939;19;20166;-89
2023/06/26 08:36:34;;;;;;;0.93;0.93;;;;;;;;;;7396631;19;20128;-89
2023/06/26 08:39:01;;;;;;;1.20;1.17;;;;;;;;;;7395476;19;20137;-88
2023/06/26 08:41:28;;;;;;;0.98;0.98;;;;;;;;;;7395918;19;20623;-88
2023/06/26 08:43:55;;;;;;;1.85;1.20;;;;;;;;;;7397569;19;20153;-88
2023/06/26 08:46:21;;;;;;;1.00;1.00;;;;;;;;;;7397589;19;20179;-88
2023/06/26 08:48:51;;;;;;;0.73;0.73;;;;;;;;;;7396907;19;20691;-88
2023/06/26 08:51:21;;;;;;;2.13;1.00;;;;;;;;;;7396099;19;20143;-88
2023/06/26 08:54:01;;;;;;;0.98;0.98;;;;;;;;;;7395856;19;20144;-86
2023/06/26 08:56:33;;;;;;;1.65;1.55;;;;;;;;;;7397237;19;20123;-87
2023/06/26 08:58:59;;;;;;;2.63;1.80;;;;;;;;;;7395850;19;20125;-88
2023/06/26 09:01:26;;;;;;;1.80;1.70;;;;;;;;;;7396529;19;20132;-87
2023/06/26 09:03:53;;;;;;;1.08;1.08;;;;;;;;;;7396558;19;20177;-88
2023/06/26 09:06:20;;;;;;;1.98;1.17;;;;;;;;;;7397692;19;20173;-89
2023/06/26 09:08:47;;;;;;;1.35;1.33;;;;;;;;;;7398870;19;20159;-89
2023/06/26 09:11:13;;;;;;;1.27;1.17;;;;;;;;;;7397656;19;20135;-87
2023/06/26 09:13:47;;;;;;;1.52;1.42;;;;;;;;;;7399120;19;20920;-89
2023/06/26 09:16:17;;;;;;;1.60;1.50;;;;;;;;;;7394731;19;20145;-89
2023/06/26 09:18:46;;;;;;;0.98;0.98;;;;;;;;;;7394643;19;20144;-88
2023/06/26 09:21:13;;;;;;;15.38;1.15;;;;;;;;;;7393645;19;20133;-87
2023/06/26 09:23:41;;;;;;;3.50;2.05;;;;;;;;;;7392542;19;20153;-89
2023/06/26 09:26:08;;;;;;;1.20;1.20;;;;;;;;;;7395012;19;20137;-87
2023/06/26 09:28:35;;;;;;;0.98;0.95;;;;;;;;;;7393622;19;20137;-87
2023/06/26 09:31:03;;;;;;;1.70;1.60;;;;;;;;;;7393920;19;20137;-86
2023/06/26 09:33:37;;;;;;;1.20;1.17;;;;;;;;;;7393338;19;20950;-89
2023/06/26 09:36:06;;;;;;;1.23;1.23;;;;;;;;;;7393815;19;20593;-86
2023/06/26 09:38:34;;;;;;;1.40;1.23;;;;;;;;;;7393279;19;20587;-88
2023/06/26 09:41:02;;;;;;;1.02;1.02;;;;;;;;;;7392728;19;20137;-90
2023/06/26 09:43:30;;;;;;;0.80;0.80;;;;;;;;;;7393556;19;20164;-87
2023/06/26 09:45:58;;;;;;;1.52;1.42;;;;;;;;;;7391144;19;20199;-89
2023/06/26 09:48:26;;;;;;;0.60;0.60;;;;;;;;;;7390228;19;20161;-86
2023/06/26 09:50:53;;;;;;;1.58;1.50;;;;;;;;;;7388480;19;20136;-88
2023/06/26 09:53:39;;;;;;;1.17;1.08;;;;;;;;;;7389332;19;20209;-89
2023/06/26 09:56:07;;;;;;;1.63;1.52;;;;;;;;;;7389364;19;20133;-89
2023/06/26 09:58:34;;;;;;;1.70;1.60;;;;;;;;;;7394130;19;20143;-89
2023/06/26 10:01:02;;;;;;;2.63;1.25;;;;;;;;;;7395696;19;20189;-90
2023/06/26 10:03:29;;;;;;;0.60;0.60;;;;;;;;;;7399288;19;20192;-89
2023/06/26 10:06:09;;;;;;;1.60;1.50;;;;;;;;;;7394689;19;20140;-89
2023/06/26 10:08:45;;;;;;;1.10;1.08;;;;;;;;;;7396921;19;20137;-88
2023/06/26 10:11:19;;;;;;;0.98;0.98;;;;;;;;;;7395287;19;20151;-87
2023/06/26 10:13:48;;;;;;;2.05;1.95;;;;;;;;;;7399246;19;20187;-87
2023/06/26 10:16:35;;;;;;;1.20;1.15;;;;;;;;;;7394621;19;20145;-89
2023/06/26 10:19:04;;;;;;;1.95;1.45;;;;;;;;;;7396607;19;20147;-88
2023/06/26 10:21:31;;;;;;;1.65;1.55;;;;;;;;;;7397934;19;20145;-89
2023/06/26 10:23:58;;;;;;;3.22;1.40;;;;;;;;;;7397847;19;20153;-88
2023/06/26 10:26:32;;;;;;;1.23;1.15;;;;;;;;;;7395811;19;20133;-89
2023/06/26 10:32:10;;;;;;;1.70;1.50;;;;;;;;;;7393697;19;20149;-90
2023/06/26 10:34:37;;;;;;;0.80;0.80;;;;;;;;;;7395176;19;20158;-89
2023/06/26 10:37:05;;;;;;;1.13;1.13;;;;;;;;;;7388226;19;20133;-90
2023/06/26 10:39:54;;;;;;;1.38;1.38;;;;;;;;;;7393376;19;20716;-90
2023/06/26 10:42:34;;;;;;;1.65;1.55;;;;;;;;;;7392825;19;20149;-90
2023/06/26 10:45:19;;;;;;;1.10;0.90;;;;;;;;;;7392948;19;20659;-91
2023/06/26 10:47:55;;;;;;;1.00;0.88;;;;;;;;;;7393493;19;20133;-90
2023/06/26 10:50:28;;;;;;;0.93;0.93;;;;;;;;;;7391639;19;20149;-90
2023/06/26 10:53:21;;;;;;;1.05;1.05;;;;;;;;;;7389458;19;20120;-89
2023/06/26 10:55:50;;;;;;;1.05;1.05;;;;;;;;;;7394292;19;20916;-87
2023/06/26 10:58:46;;;;;;;1.65;1.55;;;;;;;;;;7393960;19;20158;-92
2023/06/26 11:01:23;;;;;;;2.00;1.90;;;;;;;;;;7395065;19;20156;-89
2023/06/26 11:04:04;;;;;;;2.13;1.45;;;;;;;;;;7397195;19;20163;-89
2023/06/26 11:06:34;;;;;;;1.13;1.13;;;;;;;;;;7395110;19;20148;-89
2023/06/26 11:09:04;;;;;;;1.70;1.60;;;;;;;;;;7397378;19;20211;-89
2023/06/26 11:11:59;;;;;;;2.28;1.55;;;;;;;;;;7395668;19;20153;-91
2023/06/26 11:14:27;;;;;;;1.23;1.23;;;;;;;;;;7392607;19;20179;-91
2023/06/26 11:17:08;;;;;;;2.05;1.30;;;;;;;;;;7392895;19;20170;-89
2023/06/26 11:19:47;;;;;;;2.17;1.60;;;;;;;;;;7393213;19;20153;-93
2023/06/26 11:22:15;;;;;;;1.65;1.55;;;;;;;;;;7396984;19;20140;-91
2023/06/26 11:24:44;;;;;;;1.05;0.95;;;;;;;;;;7392205;19;20168;-93
2023/06/26 11:27:12;;;;;;;1.48;1.27;;;;;;;;;;7396246;19;20129;-90
2023/06/26 11:33:11;;;;;;;1.60;1.50;;;;;;;;;;7393175;19;20129;-92
2023/06/26 11:35:47;;;;;;;1.98;1.63;;;;;;;;;;7394869;19;20136;-91
2023/06/26 11:38:14;;;;;;;1.48;1.38;;;;;;;;;;7392556;19;20136;-92
2023/06/26 11:40:41;;;;;;;1.50;1.40;;;;;;;;;;7394070;19;20145;-92
2023/06/26 11:43:09;;;;;;;1.45;1.35;;;;;;;;;;7395669;19;20140;-92
2023/06/26 11:46:17;;;;;;;1.20;1.10;;;;;;;;;;7396720;19;20513;-91
2023/06/26 11:48:44;;;;;;;1.38;1.27;;;;;;;;;;7396008;19;20141;-94
2023/06/26 11:51:30;;;;;;;;;;;;;;;;;;7397311;19;20014;-92
2023/06/26 11:54:27;;;;;;;0.95;0.95;;;;;;;;;;7392697;19;20219;-92
2023/06/26 13:30:25;;;;;;;1.17;1.17;;;;;;;;;;7394708;19;20656;-88
2023/06/26 13:32:52;;;;;;;1.27;1.27;;;;;;;;;;7399589;19;20469;-91
2023/06/26 13:35:26;;;;;;;1.75;1.63;;;;;;;;;;7400014;19;20624;-88
2023/06/26 13:38:18;;;;;;;0.85;0.80;;;;;;;;;;7403087;19;20137;-88
2023/06/26 13:41:10;;;;;;;2.25;1.85;;;;;;;;;;7401291;19;20147;-89
2023/06/26 13:49:16;;;;;;;2.47;1.42;;;;;;;;;;7409426;19;20128;-87
2023/06/26 13:51:46;;;;;;;2.67;2.10;;;;;;;;;;7405281;19;20133;-90
2023/06/26 13:54:13;;;;;;;1.17;1.15;;;;;;;;;;7400531;19;20625;-87
2023/06/26 13:57:41;;;;;;;1.50;1.40;;;;;;;;;;7400505;19;20216;-91
2023/06/26 14:00:26;;;;;;;0.85;0.85;;;;;;;;;;7399783;19;20568;-92
2023/06/26 14:03:06;;;;;;;1.13;1.13;;;;;;;;;;7397381;19;20169;-90
2023/06/26 14:05:36;;;;;;;1.55;1.45;;;;;;;;;;7396641;19;20169;-89
2023/06/26 14:08:08;;;;;;;1.55;1.45;;;;;;;;;;7400889;19;20160;-90
2023/06/26 14:10:38;;;;;;;0.90;0.90;;;;;;;;;;7398658;19;20144;-89
2023/06/26 14:13:30;;;;;;;1.98;1.88;;;;;;;;;;7398652;19;20144;-89
2023/06/26 14:16:07;;;;;;;1.67;1.45;;;;;;;;;;7400331;19;20148;-91
2023/06/26 14:18:57;;;;;;;1.80;1.67;;;;;;;;;;7397569;19;20562;-91
2023/06/26 14:21:41;;;;;;;2.33;1.98;;;;;;;;;;7398131;19;20173;-91
2023/06/26 14:24:42;;;;;;;1.02;1.02;;;;;;;;;;7395611;19;20164;-92
2023/06/26 14:27:49;;;;;;;2.40;1.80;;;;;;;;;;7395072;19;20204;-91
2023/06/26 14:30:21;;;;;;;1.38;1.27;;;;;;;;;;7392212;19;20156;-90
2023/06/26 14:32:51;;;;;;;1.13;1.10;;;;;;;;;;7394675;19;20196;-91
2023/06/26 14:35:18;;;;;;;1.50;1.40;;;;;;;;;;7391672;19;20392;-90
2023/06/26 14:37:45;;;;;;;1.08;1.08;;;;;;;;;;7396452;19;20145;-91
2023/06/26 14:40:12;;;;;;;1.88;1.77;;;;;;;;;;7396093;19;20141;-91
2023/06/26 14:42:40;;;;;;;0.90;0.90;;;;;;;;;;7402993;19;20164;-93
2023/06/26 14:45:13;;;;;;;1.58;1.27;;;;;;;;;;7407950;19;20176;-94
2023/06/26 14:47:40;;;;;;;0.80;0.80;;;;;;;;;;7400168;19;20177;-95
2023/06/26 14:50:10;;;;;;;1.95;1.80;;;;;;;;;;7405508;19;20212;-94
2023/06/26 14:52:37;;;;;;;1.40;1.23;;;;;;;;;;7395424;19;20139;-91
2023/06/26 14:55:05;;;;;;;1.60;1.50;;;;;;;;;;7393207;19;20506;-92
2023/06/26 14:57:33;;;;;;;0.57;0.57;;;;;;;;;;7410283;19;20140;-94
2023/06/26 15:00:00;;;;;;;1.05;1.05;;;;;;;;;;7394690;19;20136;-90
2023/06/26 15:05:38;;;;;;;1.00;1.00;;;;;;;;;;7388425;19;20255;-90
2023/06/26 15:08:06;;;;;;;1.83;1.73;;;;;;;;;;7391670;19;20151;-87
2023/06/26 15:10:32;;;;;;;1.33;0.95;;;;;;;;;;7392547;19;20129;-90
2023/06/26 15:13:07;;;;;;;1.85;1.73;;;;;;;;;;7391390;19;20152;-88
2023/06/26 15:15:36;;;;;;;1.63;1.33;;;;;;;;;;7390664;19;20648;-89
2023/06/26 15:18:06;;;;;;;1.75;1.65;;;;;;;;;;7394255;19;20140;-88
2023/06/26 15:20:42;;;;;;;1.08;1.08;;;;;;;;;;7389136;19;20133;-88
2023/06/26 15:23:09;;;;;;;1.20;1.20;;;;;;;;;;7390043;19;20543;-90
2023/06/26 15:26:01;;;;;;;0.90;0.90;;;;;;;;;;7391588;19;20232;-89
2023/06/26 15:28:29;;;;;;;1.00;1.00;;;;;;;;;;7392579;19;20133;-90
2023/06/26 15:31:02;;;;;;;1.63;0.85;;;;;;;;;;7389104;19;20145;-89
2023/06/26 15:33:28;;;;;;;0.73;0.73;;;;;;;;;;7387126;19;20161;-89
2023/06/26 15:35:55;;;;;;;2.08;1.45;;;;;;;;;;7392624;19;20133;-88
2023/06/26 15:38:22;;;;;;;1.75;1.33;;;;;;;;;;7389896;19;20137;-89
2023/06/26 15:40:48;;;;;;;1.42;1.35;;;;;;;;;;7390375;19;20136;-89
2023/06/26 15:44:12;;;;;;;2.60;0.98;;;;;;;;;;7384897;19;20533;-90
2023/06/26 15:50:38;;;;;;;1.17;1.08;;;;;;;;;;7391944;19;20127;-90
2023/06/26 15:53:15;;;;;;;0.75;0.75;;;;;;;;;;7387645;19;20137;-90
2023/06/26 15:55:56;;;;;;;1.15;1.05;;;;;;;;;;7384275;19;20149;-90
2023/06/26 15:58:24;;;;;;;0.77;0.77;;;;;;;;;;7388876;19;20164;-89
2023/06/26 16:01:11;;;;;;;1.23;1.13;;;;;;;;;;7389743;19;20137;-88
2023/06/26 16:04:38;;;;;;;;;;;;;;;;;;;;;
2023/06/26 16:07:42;;;;;;;0.82;0.80;;;;;;;;;;7386278;19;20145;-88
2023/06/26 16:10:39;;;;;;;1.00;1.00;;;;;;;;;;7394220;19;20147;-85
2023/06/26 16:13:18;;;;;;;;;;;;;;;;;;;;;
2023/06/26 16:16:15;;;;;;;0.50;0.50;;;;;;;;;;7388539;19;20904;-89
2023/06/26 16:19:16;;;;;;;0.45;0.45;;;;;;;;;;7388011;19;20149;-90
2023/06/26 16:21:56;;;;;;;1.73;1.20;;;;;;;;;;7381576;19;20149;-91
2023/06/26 16:24:24;;;;;;;0.55;0.55;;;;;;;;;;7387715;19;20610;-89
2023/06/26 16:26:58;;;;;;;0.73;0.73;;;;;;;;;;7383657;19;20148;-91
2023/06/26 16:29:25;;;;;;;0.73;0.73;;;;;;;;;;7390925;19;20145;-89
2023/06/26 16:32:07;;;;;;;0.85;0.85;;;;;;;;;;7388836;19;20136;-89
2023/06/26 16:34:41;;;;;;;0.80;0.80;;;;;;;;;;7390336;19;20726;-90
2023/06/26 16:37:08;;;;;;;1.02;1.02;;;;;;;;;;7392586;19;20181;-90
2023/06/26 16:39:41;;;;;;;0.90;0.90;;;;;;;;;;7391097;19;20133;-89
2023/06/26 16:45:37;;;;;;;2.42;0.85;;;;;;;;;;7389862;19;20566;-90
2023/06/26 16:48:04;;;;;;;0.90;0.90;;;;;;;;;;7390790;19;20136;-90
2023/06/26 16:50:53;;;;;;;0.57;0.57;;;;;;;;;;7390930;19;20144;-90
2023/06/26 16:54:07;;;;;;;0.80;0.80;;;;;;;;;;7393269;19;20152;-87
2023/06/26 16:56:40;;;;;;;0.60;0.60;;;;;;;;;;7394594;19;20143;-91
2023/06/26 16:59:12;;;;;;;1.05;1.05;;;;;;;;;;7393288;19;20196;-88
2023/06/26 17:01:53;;;;;;;0.60;0.60;;;;;;;;;;7395364;19;20576;-88
2023/06/26 17:05:16;;;;;;;0.80;0.80;;;;;;;;;;7396676;19;20152;-88
2023/06/26 17:07:45;;;;;;;1.25;1.15;;;;;;;;;;7399137;19;20136;-91
2023/06/26 17:10:28;;;;;;;0.98;0.98;;;;;;;;;;7397564;19;20225;-87